Time;durP1;ratioP1;P1;durP2;ratioP2;P2;SDS_P1;SDS_P2;PMS_P1;PMS_P2;Temp;Humidity;BMP_temperature;BMP_pressure;BME280_temperature;BME280_humidity;BME280_pressure;Samples;Min_cycle;Max_cycle;Signal;HPM_P1;HPM_P2
2023/01/19 00:01:36;;;;;;;8.40;2.87;;;;;;;9.09;53.25;101701.92;1878022;75;21064;-59
2023/01/19 00:04:05;;;;;;;7.12;3.12;;;;;;;9.17;53.00;101699.19;1838134;76;21076;-58
2023/01/19 00:06:34;;;;;;;11.53;4.78;;;;;;;9.18;52.85;101704.39;1883804;74;21560;-53
2023/01/19 00:09:02;;;;;;;5.60;2.27;;;;;;;9.14;52.84;101704.03;1866294;75;21130;-55
2023/01/19 00:11:31;;;;;;;10.75;3.27;;;;;;;9.11;52.83;101700.17;1871642;76;21200;-58
2023/01/19 00:13:59;;;;;;;5.97;3.12;;;;;;;9.15;52.72;101701.84;1866101;76;21228;-56
2023/01/19 00:16:28;;;;;;;6.83;2.87;;;;;;;9.11;52.62;101697.96;1871704;76;21186;-54
2023/01/19 00:18:57;;;;;;;7.15;3.50;;;;;;;9.01;52.57;101697.27;1872571;76;21255;-54
2023/01/19 00:21:25;;;;;;;11.65;5.42;;;;;;;8.88;52.62;101694.83;1877063;76;21218;-53
2023/01/19 00:23:54;;;;;;;12.98;5.50;;;;;;;8.72;52.74;101695.97;1865309;76;21113;-57
2023/01/19 00:26:23;;;;;;;13.53;5.95;;;;;;;8.61;52.87;101695.28;1861903;76;21667;-55
2023/01/19 00:28:51;;;;;;;13.20;5.97;;;;;;;8.46;53.06;101699.01;1865611;76;21122;-49
2023/01/19 00:31:20;;;;;;;9.63;5.00;;;;;;;8.27;53.33;101693.14;1873982;76;21184;-57
2023/01/19 00:33:51;;;;;;;9.90;5.58;;;;;;;8.11;53.41;101694.67;1863052;74;21071;-54
2023/01/19 00:36:19;;;;;;;10.28;5.05;;;;;;;7.97;53.60;101694.41;1877680;76;21077;-55
2023/01/19 00:38:48;;;;;;;12.90;5.40;;;;;;;7.86;53.84;101697.19;1887004;75;21175;-47
2023/01/19 00:41:17;;;;;;;11.80;4.53;;;;;;;7.78;54.08;101692.46;1884123;76;21050;-49
2023/01/19 00:43:46;;;;;;;13.83;5.55;;;;;;;7.73;54.11;101692.08;1874405;76;21583;-53
2023/01/19 00:46:14;;;;;;;9.85;3.72;;;;;;;7.71;54.20;101689.92;1881811;75;21039;-50
2023/01/19 00:48:43;;;;;;;13.25;4.90;;;;;;;7.71;54.16;101688.61;1874211;76;21102;-49
2023/01/19 00:51:12;;;;;;;10.13;4.40;;;;;;;7.73;54.17;101692.08;1887171;76;21030;-50
2023/01/19 00:53:40;;;;;;;10.90;5.55;;;;;;;7.72;54.26;101689.02;1875941;76;21101;-47
2023/01/19 00:56:09;;;;;;;13.48;4.90;;;;;;;7.69;54.37;101686.88;1882707;75;21074;-54
2023/01/19 00:58:38;;;;;;;13.28;5.17;;;;;;;7.64;54.48;101692.19;1911366;74;21169;-47
2023/01/19 01:01:07;;;;;;;15.18;6.10;;;;;;;7.58;54.56;101687.03;1886726;76;21030;-47
2023/01/19 01:03:35;;;;;;;14.90;5.45;;;;;;;7.52;54.66;101691.01;1887444;76;21179;-48
2023/01/19 01:06:07;;;;;;;11.20;5.47;;;;;;;7.47;54.69;101684.52;1883321;75;21111;-49
2023/01/19 01:08:35;;;;;;;13.70;6.42;;;;;;;7.44;54.73;101684.55;1887545;76;21204;-47
2023/01/19 01:11:04;;;;;;;15.30;5.78;;;;;;;7.39;54.84;101694.66;1887242;76;21043;-47
2023/01/19 01:13:33;;;;;;;12.58;6.45;;;;;;;7.43;54.89;101695.04;1887390;76;21179;-47
2023/01/19 01:16:01;;;;;;;8.80;5.25;;;;;;;7.61;54.83;101698.77;1885111;75;21450;-45
2023/01/19 01:18:30;;;;;;;8.60;4.45;;;;;;;7.79;54.63;101706.01;1887373;76;21172;-54
2023/01/19 01:21:03;;;;;;;8.08;4.70;;;;;;;7.95;54.40;101711.91;1887509;76;21046;-56
2023/01/19 01:23:32;;;;;;;4.70;2.98;;;;;;;8.11;54.19;101718.28;1886894;76;21077;-57
2023/01/19 01:26:01;;;;;;;9.95;4.00;;;;;;;8.33;53.99;101714.03;1887383;76;21544;-48
2023/01/19 01:28:31;;;;;;;6.92;3.35;;;;;;;8.61;53.36;101716.28;1888054;75;21046;-55
2023/01/19 01:31:00;;;;;;;6.50;2.95;;;;;;;8.76;53.20;101709.92;1887370;75;21521;-49
2023/01/19 01:33:28;;;;;;;7.17;3.80;;;;;;;8.85;53.00;101711.98;1887422;76;21631;-55
2023/01/19 01:35:57;;;;;;;7.00;3.30;;;;;;;8.86;52.85;101716.32;1888650;74;21042;-57
2023/01/19 01:38:26;;;;;;;6.35;3.12;;;;;;;8.86;52.80;101727.28;1869455;75;21534;-59
2023/01/19 01:40:55;;;;;;;4.80;3.12;;;;;;;8.84;52.79;101721.19;1855565;77;21031;-57
2023/01/19 01:43:23;;;;;;;13.05;3.30;;;;;;;8.77;52.76;101726.97;1855519;77;21204;-47
2023/01/19 01:45:53;;;;;;;8.90;3.40;;;;;;;8.68;52.79;101725.80;1855526;77;21072;-48
2023/01/19 01:48:29;;;;;;;10.43;3.50;;;;;;;8.59;52.80;101727.25;1864825;75;21134;-48
2023/01/19 01:53:53;;;;;;;7.78;4.25;;;;;;;8.28;53.03;101747.33;1863724;75;21058;-55
2023/01/19 01:56:24;;;;;;;9.15;3.90;;;;;;;8.12;53.11;101750.16;1864479;75;21038;-48
2023/01/19 01:58:53;;;;;;;8.88;3.70;;;;;;;8.00;53.13;101747.69;1856205;76;21157;-57
2023/01/19 02:04:09;;;;;;;8.95;4.20;;;;;;;7.81;53.24;101767.16;1856256;77;21063;-55
2023/01/19 02:15:01;;;;;;;9.03;4.62;;;;;;;7.40;53.56;101777.63;1888202;75;21612;-53
2023/01/19 02:17:29;;;;;;;9.50;4.47;;;;;;;7.30;53.69;101773.78;1888715;75;21085;-58
2023/01/19 02:19:58;;;;;;;8.63;4.15;;;;;;;7.27;53.72;101775.56;1888263;76;21034;-57
2023/01/19 02:22:37;;;;;;;13.90;5.20;;;;;;;7.24;53.75;101780.81;1888442;76;21116;-49
2023/01/19 02:25:07;;;;;;;12.60;5.17;;;;;;;7.18;53.82;101780.43;1887941;76;21042;-48
2023/01/19 02:27:36;;;;;;;10.53;4.60;;;;;;;7.15;53.79;101777.38;1888858;75;21535;-48
2023/01/19 02:30:07;;;;;;;10.78;4.75;;;;;;;7.10;53.88;101778.30;1888309;76;21465;-49
2023/01/19 02:32:36;;;;;;;12.50;5.30;;;;;;;7.08;53.90;101782.27;1888222;76;21148;-48
2023/01/19 02:35:05;;;;;;;12.18;5.10;;;;;;;7.09;53.81;101777.89;1888297;76;21054;-47
2023/01/19 02:37:38;;;;;;;12.58;5.47;;;;;;;7.03;53.83;101784.49;1886037;76;21133;-48
2023/01/19 02:40:11;;;;;;;17.92;5.87;;;;;;;6.94;54.00;101788.03;1888514;76;21128;-48
2023/01/19 02:42:55;;;;;;;22.60;6.33;;;;;;;6.89;54.09;101781.51;1888293;76;21042;-48
2023/01/19 02:45:23;;;;;;;;;;;;;;;6.87;54.27;101779.34;1891045;76;21081;-48
2023/01/19 02:47:52;;;;;;;17.52;6.75;;;;;;;6.83;54.19;101777.64;1885867;76;20175;-53
2023/01/19 02:50:45;;;;;;;34.88;7.33;;;;;;;6.76;54.32;101786.41;1888106;76;21466;-48
2023/01/19 02:53:47;;;;;;;18.80;5.42;;;;;;;6.75;54.47;101779.42;1886665;76;21046;-48
2023/01/19 02:56:35;;;;;;;18.35;5.42;;;;;;;6.71;54.55;101775.98;1887450;76;21505;-56
2023/01/19 02:59:16;;;;;;;18.27;5.90;;;;;;;6.67;54.41;101775.55;1885574;76;21105;-56
2023/01/19 03:02:08;;;;;;;20.75;6.92;;;;;;;6.62;54.58;101772.53;1888213;76;21124;-56
2023/01/19 03:05:01;;;;;;;14.18;4.75;;;;;;;6.57;54.50;101771.27;1886786;76;21086;-56
2023/01/19 03:08:09;;;;;;;11.85;5.40;;;;;;;6.51;54.48;101769.55;1885831;76;21074;-56
2023/01/19 03:10:53;;;;;;;11.75;4.40;;;;;;;6.49;54.57;101773.93;1887352;75;21066;-56
2023/01/19 03:13:42;;;;;;;9.95;4.10;;;;;;;6.41;54.62;101780.08;1888316;76;21104;-56
2023/01/19 03:16:38;;;;;;;10.75;5.50;;;;;;;6.36;54.67;101776.16;1888255;75;21023;-55
2023/01/19 03:19:10;;;;;;;15.55;5.22;;;;;;;6.32;54.73;101784.91;1850900;76;21513;-56
2023/01/19 03:21:41;;;;;;;12.50;4.80;;;;;;;6.28;54.81;101785.80;1886147;76;21473;-46
2023/01/19 03:24:13;;;;;;;14.47;5.85;;;;;;;6.24;54.83;101792.79;1888257;76;21167;-46
2023/01/19 03:26:45;;;;;;;14.98;5.30;;;;;;;6.21;54.96;101795.86;1888305;76;21043;-47
2023/01/19 03:29:16;;;;;;;11.48;5.22;;;;;;;6.19;55.03;101802.39;1883944;76;21533;-49
2023/01/19 03:31:48;;;;;;;11.10;5.15;;;;;;;6.17;54.99;101799.78;1888186;76;21430;-45
2023/01/19 03:34:21;;;;;;;11.78;5.00;;;;;;;6.14;55.18;101800.22;1888353;76;21474;-45
2023/01/19 03:36:52;;;;;;;11.65;5.65;;;;;;;6.13;55.28;101799.36;1888238;76;21533;-46
2023/01/19 03:39:26;;;;;;;23.25;6.70;;;;;;;6.13;55.25;101803.29;1885786;75;21050;-55
2023/01/19 03:41:55;;;;;;;;;;;;;;;6.11;55.39;101807.66;1891025;76;21038;-46
2023/01/19 03:44:26;;;;;;;12.50;5.58;;;;;;;6.12;55.21;101804.18;1886420;75;20154;-53
2023/01/19 03:46:58;;;;;;;15.15;5.10;;;;;;;6.07;55.16;101802.42;1888256;76;21034;-53
2023/01/19 03:49:28;;;;;;;19.80;6.65;;;;;;;5.99;55.41;101805.07;1888251;76;21046;-55
2023/01/19 03:51:58;;;;;;;26.17;6.00;;;;;;;5.93;55.56;101805.06;1885825;75;21022;-53
2023/01/19 03:54:27;;;;;;;41.63;7.00;;;;;;;5.87;55.71;101802.03;1887883;76;21512;-54
2023/01/19 03:56:56;;;;;;;15.58;5.83;;;;;;;5.84;55.68;101815.55;1888039;76;21129;-53
2023/01/19 03:59:24;;;;;;;16.87;6.72;;;;;;;5.75;55.79;101815.98;1888074;75;21050;-53
2023/01/19 04:01:53;;;;;;;20.50;7.10;;;;;;;5.69;55.89;101808.16;1885885;76;21584;-52
2023/01/19 04:04:22;;;;;;;29.48;7.95;;;;;;;5.63;56.05;101809.48;1888073;76;21022;-52
2023/01/19 04:06:51;;;;;;;26.37;7.20;;;;;;;5.58;56.19;101808.62;1888185;76;21145;-53
2023/01/19 04:09:20;;;;;;;23.00;7.85;;;;;;;5.53;56.22;101814.27;1886313;76;21090;-54
2023/01/19 04:11:48;;;;;;;21.82;7.10;;;;;;;5.48;56.26;101816.91;1884316;75;21102;-54
2023/01/19 04:14:17;;;;;;;22.40;7.28;;;;;;;5.45;56.37;101817.34;1884455;76;21014;-55
2023/01/19 04:16:46;;;;;;;19.05;6.25;;;;;;;5.39;56.29;101819.08;1884457;76;21042;-47
2023/01/19 04:19:15;;;;;;;27.67;6.65;;;;;;;5.32;56.36;101818.64;1884449;76;21101;-47
2023/01/19 04:21:43;;;;;;;19.90;5.83;;;;;;;5.27;56.42;101828.21;1883204;75;21130;-47
2023/01/19 04:24:13;;;;;;;22.67;7.05;;;;;;;5.21;56.40;101830.83;1883710;76;21184;-46
2023/01/19 04:26:42;;;;;;;23.18;7.47;;;;;;;5.16;56.48;101826.89;1884437;76;21155;-50
2023/01/19 04:29:12;;;;;;;14.73;6.47;;;;;;;5.12;56.55;101832.12;1884658;76;21191;-47
2023/01/19 04:31:41;;;;;;;11.18;4.58;;;;;;;5.05;56.76;101828.62;1884534;76;21022;-47
2023/01/19 04:34:10;;;;;;;13.75;5.97;;;;;;;5.09;56.86;101833.01;1859026;76;21044;-47
2023/01/19 04:36:38;;;;;;;13.90;6.15;;;;;;;5.12;56.84;101842.57;1852468;77;21122;-52
2023/01/19 04:39:08;;;;;;;18.27;6.30;;;;;;;5.05;57.06;101832.98;1852648;77;21125;-55
2023/01/19 04:41:36;;;;;;;13.43;4.67;;;;;;;5.02;57.19;101838.64;1852713;77;21435;-55
2023/01/19 04:44:05;;;;;;;18.27;5.62;;;;;;;5.01;57.29;101832.97;1876552;75;21034;-56
2023/01/19 04:46:34;;;;;;;24.05;6.97;;;;;;;5.08;57.28;101839.08;1884402;76;21077;-55
2023/01/19 04:49:02;;;;;;;16.67;5.55;;;;;;;5.10;57.40;101841.26;1884355;76;21063;-57
2023/01/19 04:51:31;;;;;;;17.15;5.03;;;;;;;5.10;57.35;101843.01;1884480;76;21035;-57
2023/01/19 04:54:00;;;;;;;6.25;3.10;;;;;;;5.15;57.37;101842.14;1880927;76;21117;-57
2023/01/19 04:56:29;;;;;;;12.68;3.80;;;;;;;5.23;57.41;101838.23;1884431;76;21097;-57
2023/01/19 04:58:58;;;;;;;13.28;4.90;;;;;;;5.38;57.34;101844.75;1884394;76;21095;-47
2023/01/19 05:01:27;;;;;;;9.00;3.60;;;;;;;5.49;57.06;101842.59;1884435;76;21042;-48
2023/01/19 05:03:57;;;;;;;13.25;4.17;;;;;;;5.52;57.03;101839.98;1873920;76;21606;-48
2023/01/19 05:06:25;;;;;;;19.50;6.20;;;;;;;5.59;56.95;101845.64;1840779;78;21024;-48
2023/01/19 05:08:54;;;;;;;25.85;7.08;;;;;;;5.62;56.78;101848.23;1840781;78;21107;-48
2023/01/19 05:11:23;;;;;;;33.55;7.55;;;;;;;5.56;56.71;101850.41;1832444;78;21060;-48
2023/01/19 05:13:52;;;;;;;40.38;8.70;;;;;;;5.55;56.79;101851.31;1832340;78;21044;-48
2023/01/19 05:16:20;;;;;;;28.38;7.30;;;;;;;5.55;56.71;101850.41;1873068;75;21031;-48
2023/01/19 05:18:52;;;;;;;43.17;7.90;;;;;;;5.61;56.77;101856.96;1875571;76;21216;-48
2023/01/19 05:21:20;;;;;;;39.30;8.73;;;;;;;5.73;56.75;101853.01;1875534;76;21059;-48
2023/01/19 05:23:49;;;;;;;31.15;7.55;;;;;;;5.88;56.67;101850.81;1875532;76;21047;-48
2023/01/19 05:26:18;;;;;;;32.60;8.90;;;;;;;6.05;56.76;101852.14;1876160;75;21079;-46
2023/01/19 05:28:46;;;;;;;30.45;9.58;;;;;;;6.11;57.02;101850.80;1875548;76;21570;-46
2023/01/19 05:31:15;;;;;;;27.25;8.23;;;;;;;6.26;57.27;101850.33;1875669;76;21050;-46
2023/01/19 05:33:44;;;;;;;30.00;9.18;;;;;;;6.42;57.21;101868.13;1875643;76;21043;-45
2023/01/19 05:36:12;;;;;;;24.47;7.70;;;;;;;6.43;57.02;101864.20;1872600;76;21058;-49
2023/01/19 05:38:41;;;;;;;43.13;10.32;;;;;;;6.55;56.94;101866.78;1875647;76;21054;-48
2023/01/19 05:41:09;;;;;;;57.13;10.68;;;;;;;6.85;56.79;101866.64;1875595;76;21075;-53
2023/01/19 05:43:38;;;;;;;26.17;7.45;;;;;;;7.20;56.74;101866.42;1875688;76;21019;-52
2023/01/19 05:46:07;;;;;;;24.15;7.37;;;;;;;7.48;56.45;101866.20;1872585;76;21099;-54
2023/01/19 05:48:35;;;;;;;22.65;6.17;;;;;;;7.53;56.03;101870.98;1875648;76;21118;-53
2023/01/19 05:51:05;;;;;;;17.82;5.15;;;;;;;7.40;55.79;101871.97;1875772;76;21043;-47
2023/01/19 05:53:33;;;;;;;16.20;6.50;;;;;;;7.28;55.58;101868.53;1875756;76;21047;-49
2023/01/19 05:56:04;;;;;;;22.40;7.30;;;;;;;7.22;55.46;101863.80;1848869;75;21119;-49
2023/01/19 05:58:34;;;;;;;43.40;11.22;;;;;;;7.13;55.30;101856.86;1832445;78;21117;-49
2023/01/19 06:01:05;;;;;;;56.60;12.07;;;;;;;7.03;55.21;101856.51;1832402;78;21594;-49
2023/01/19 06:03:35;;;;;;;27.93;9.03;;;;;;;6.99;55.21;101863.93;1832576;78;21053;-48
2023/01/19 06:06:04;;;;;;;25.80;9.23;;;;;;;7.00;55.20;101853.45;1835402;76;21647;-49
2023/01/19 06:08:33;;;;;;;32.63;7.97;;;;;;;7.50;55.07;101855.27;1832440;78;21060;-49
2023/01/19 06:11:01;;;;;;;34.23;10.45;;;;;;;8.49;54.02;101857.33;1832397;77;21152;-49
2023/01/19 06:13:30;;;;;;;37.05;10.20;;;;;;;9.44;53.17;101852.89;1853344;75;21108;-48
2023/01/19 06:16:00;;;;;;;34.85;12.30;;;;;;;9.70;52.67;101856.84;1872680;76;21470;-52
2023/01/19 06:18:29;;;;;;;35.30;10.13;;;;;;;9.64;52.48;101857.36;1875628;76;21039;-48
2023/01/19 06:20:58;;;;;;;34.45;11.35;;;;;;;9.52;52.26;101856.28;1875520;76;21430;-49
2023/01/19 06:23:29;;;;;;;110.60;29.35;;;;;;;10.37;51.59;101861.33;1876277;75;21082;-48
2023/01/19 06:25:58;;;;;;;97.27;27.82;;;;;;;11.09;51.14;101854.48;1872593;76;21125;-49
2023/01/19 06:28:26;;;;;;;102.70;28.92;;;;;;;11.41;50.66;101852.84;1875599;76;21035;-48
2023/01/19 06:30:56;;;;;;;52.85;15.13;;;;;;;12.47;49.69;101852.67;1875606;76;21078;-48
2023/01/19 06:33:26;;;;;;;66.22;17.40;;;;;;;12.91;49.22;101855.75;1875588;76;21631;-48
2023/01/19 06:35:56;;;;;;;64.10;16.67;;;;;;;13.75;48.49;101848.62;1878120;75;21066;-48
2023/01/19 06:38:24;;;;;;;41.65;12.10;;;;;;;14.82;47.29;101852.25;1875588;76;21555;-49
2023/01/19 06:40:57;;;;;;;46.18;13.05;;;;;;;15.75;46.38;101850.24;1855672;75;21064;-47
2023/01/19 06:43:30;;;;;;;49.55;11.83;;;;;;;16.59;45.23;101846.91;1875791;76;21118;-55
2023/01/19 06:45:59;;;;;;;37.03;11.53;;;;;;;17.45;44.25;101851.72;1875386;76;21050;-46
2023/01/19 06:48:28;;;;;;;35.13;10.45;;;;;;;18.04;43.68;101855.78;1875628;76;21039;-47
2023/01/19 06:50:57;;;;;;;54.27;12.60;;;;;;;18.55;42.36;101854.86;1871074;75;21502;-52
2023/01/19 06:53:27;;;;;;;25.88;10.03;;;;;;;18.95;41.13;101860.68;1875399;75;21083;-54
2023/01/19 06:56:00;;;;;;;36.75;10.55;;;;;;;19.36;40.53;101856.09;1908195;75;21567;-56
2023/01/19 06:58:28;;;;;;;;;;;;;;;19.80;39.57;101856.64;1883536;75;21054;-54
2023/01/19 07:01:02;;;;;;;29.02;8.35;;;;;;;20.31;39.74;101857.56;1875624;76;20120;-48
2023/01/19 07:03:31;;;;;;;25.95;9.90;;;;;;;20.71;38.39;101848.36;1875621;76;21078;-51
2023/01/19 07:06:05;;;;;;;28.47;9.35;;;;;;;21.03;37.85;101845.42;1879631;75;21585;-54
2023/01/19 07:08:35;;;;;;;25.82;11.03;;;;;;;21.29;37.10;101849.05;1893756;75;21104;-53
2023/01/19 07:11:07;;;;;;;27.02;11.05;;;;;;;21.45;36.14;101841.73;1863680;75;21083;-48
2023/01/19 07:13:37;;;;;;;23.62;9.15;;;;;;;21.84;35.13;101841.76;1888132;75;21547;-49
2023/01/19 07:16:07;;;;;;;31.82;11.88;;;;;;;22.23;34.31;101843.98;1894740;75;21152;-47
2023/01/19 07:18:37;;;;;;;35.30;14.43;;;;;;;22.44;33.80;101837.58;1863919;76;21036;-57
2023/01/19 07:21:07;;;;;;;21.97;9.40;;;;;;;22.46;33.39;101842.34;1887688;75;21116;-47
2023/01/19 07:23:36;;;;;;;19.70;7.83;;;;;;;22.72;32.87;101848.05;1870057;75;21582;-48
2023/01/19 07:26:05;;;;;;;14.68;7.30;;;;;;;22.96;32.25;101845.84;1867929;75;21497;-48
2023/01/19 07:28:35;;;;;;;14.43;7.15;;;;;;;23.31;31.53;101843.26;1883029;75;21031;-53
2023/01/19 07:31:04;;;;;;;17.23;7.78;;;;;;;23.62;30.90;101850.80;1863622;75;21493;-48
2023/01/19 07:33:33;;;;;;;16.12;7.37;;;;;;;23.99;30.71;101852.00;1869848;75;21031;-49
2023/01/19 07:36:02;;;;;;;23.80;7.55;;;;;;;24.45;30.50;101849.69;1840897;76;21135;-46
2023/01/19 07:38:30;;;;;;;18.98;7.67;;;;;;;25.00;29.74;101841.16;1836674;76;21117;-56
2023/01/19 07:41:04;;;;;;;22.87;8.33;;;;;;;25.22;29.34;101848.31;1884381;75;21137;-48
2023/01/19 07:43:33;;;;;;;20.57;8.38;;;;;;;25.47;28.75;101848.11;1872437;75;21529;-50
2023/01/19 07:46:05;;;;;;;25.45;8.65;;;;;;;25.59;28.34;101856.52;1875784;75;21054;-52
2023/01/19 07:48:34;;;;;;;22.50;8.93;;;;;;;25.81;28.14;101855.52;1872707;76;21493;-52
2023/01/19 07:51:16;;;;;;;18.77;8.65;;;;;;;25.94;27.53;101856.70;1872921;76;21133;-49
2023/01/19 07:53:36;;;;;;;24.85;8.13;;;;;;;26.18;27.58;101850.48;1871010;76;21098;-54
2023/01/19 07:56:06;;;;;;;20.95;7.85;;;;;;;26.58;27.10;101851.00;1847334;76;21035;-56
2023/01/19 07:58:35;;;;;;;19.27;8.08;;;;;;;26.94;26.73;101854.08;1841980;76;21148;-54
2023/01/19 08:01:12;;;;;;;23.38;8.75;;;;;;;27.16;26.48;101852.96;1841654;78;21144;-56
2023/01/19 08:03:41;;;;;;;23.12;8.18;;;;;;;27.34;25.81;101853.66;1872245;75;21031;-56
2023/01/19 08:06:12;;;;;;;21.57;6.67;;;;;;;27.56;25.91;101853.85;1872852;76;21050;-50
2023/01/19 08:08:41;;;;;;;19.27;7.25;;;;;;;27.51;25.44;101856.13;1859533;75;21632;-53
2023/01/19 08:11:10;;;;;;;23.52;8.70;;;;;;;27.46;25.52;101850.28;1856883;76;21066;-53
2023/01/19 08:13:39;;;;;;;19.98;7.47;;;;;;;27.80;25.33;101850.67;1847494;76;21090;-54
2023/01/19 08:16:08;;;;;;;16.48;7.20;;;;;;;27.54;25.42;101851.79;1870310;76;21450;-53
2023/01/19 08:18:36;;;;;;;21.37;8.28;;;;;;;27.60;25.36;101849.85;1869518;76;21501;-56
2023/01/19 08:21:05;;;;;;;18.62;6.12;;;;;;;28.17;25.03;101852.58;1868627;75;20999;-48
2023/01/19 08:23:34;;;;;;;6.62;2.65;;;;;;;28.58;24.35;101850.92;1861752;75;21030;-48
2023/01/19 08:26:04;;;;;;;3.45;2.37;;;;;;;28.37;23.31;101843.87;1868246;76;21043;-56
2023/01/19 08:28:33;;;;;;;4.62;2.50;;;;;;;28.31;23.10;101837.69;1848751;76;21051;-55
2023/01/19 08:31:01;;;;;;;4.85;2.30;;;;;;;27.86;21.26;101838.41;1868898;76;21108;-55
2023/01/19 08:33:30;;;;;;;5.10;2.35;;;;;;;27.15;20.94;101832.86;1869761;76;21124;-54
2023/01/19 08:35:59;;;;;;;5.92;2.35;;;;;;;27.01;20.64;101837.32;1869462;76;21104;-54
2023/01/19 08:38:27;;;;;;;5.55;2.42;;;;;;;26.65;20.34;101836.49;1874149;75;21041;-52
2023/01/19 08:40:57;;;;;;;4.90;2.00;;;;;;;26.26;19.80;101850.31;1873436;75;21530;-56
2023/01/19 08:43:26;;;;;;;3.83;1.90;;;;;;;25.71;20.46;101831.66;1870541;75;21021;-54
2023/01/19 08:45:55;;;;;;;8.73;2.22;;;;;;;25.41;20.57;101831.46;1868599;76;21055;-56
2023/01/19 08:48:24;;;;;;;4.20;2.40;;;;;;;25.70;20.25;101822.73;1869447;76;21051;-55
2023/01/19 08:50:53;;;;;;;9.13;4.45;;;;;;;25.56;19.72;101832.02;1868819;75;21453;-55
2023/01/19 08:53:22;;;;;;;5.80;2.30;;;;;;;25.07;20.09;101832.09;1859099;75;21120;-57
2023/01/19 08:56:02;;;;;;;11.97;1.90;;;;;;;24.70;20.34;101831.56;1850651;77;21489;-57
2023/01/19 08:58:30;;;;;;;3.37;2.10;;;;;;;24.51;20.32;101830.34;1850624;77;21046;-56
2023/01/19 09:01:00;;;;;;;8.08;2.50;;;;;;;24.37;20.45;101829.28;1851062;77;21042;-50
2023/01/19 09:03:29;;;;;;;4.40;2.25;;;;;;;24.46;20.53;101823.16;1850692;77;21488;-54
2023/01/19 09:05:57;;;;;;;4.45;2.20;;;;;;;24.68;20.30;101820.94;1850686;77;21046;-57
2023/01/19 09:08:26;;;;;;;3.45;1.67;;;;;;;24.82;20.09;101817.94;1850679;77;21478;-57
2023/01/19 09:10:55;;;;;;;6.97;3.27;;;;;;;25.08;19.68;101818.12;1850845;77;21018;-54
2023/01/19 09:13:24;;;;;;;5.67;3.35;;;;;;;25.17;19.80;101818.69;1864712;76;21095;-53
2023/01/19 09:15:59;;;;;;;5.80;2.60;;;;;;;25.47;19.84;101813.05;1877648;76;21106;-55
2023/01/19 09:18:27;;;;;;;4.08;1.75;;;;;;;25.38;19.99;101817.42;1877608;75;21624;-55
2023/01/19 09:20:58;;;;;;;3.98;1.60;;;;;;;25.19;19.77;101818.06;1888778;75;21007;-57
2023/01/19 09:23:26;;;;;;;6.95;2.15;;;;;;;25.30;19.90;101811.30;1872974;74;21121;-50
2023/01/19 09:26:01;;;;;;;7.10;2.45;;;;;;;25.35;19.97;101809.08;1883700;76;21102;-49
2023/01/19 09:28:30;;;;;;;7.25;2.20;;;;;;;25.14;19.93;101804.99;1868447;74;21019;-53
2023/01/19 09:30:59;;;;;;;6.72;2.52;;;;;;;25.64;20.01;101803.05;1878497;76;21488;-52
2023/01/19 09:33:27;;;;;;;3.83;2.02;;;;;;;26.12;19.64;101806.51;1884578;76;21313;-52
2023/01/19 09:35:56;;;;;;;9.88;1.92;;;;;;;26.06;19.00;101811.11;1884670;76;21465;-53
2023/01/19 09:38:25;;;;;;;5.17;2.22;;;;;;;25.61;18.81;101802.80;1884452;76;21116;-53
2023/01/19 09:40:56;;;;;;;5.95;1.87;;;;;;;25.40;18.91;101800.61;1881398;76;21493;-53
2023/01/19 09:43:47;;;;;;;5.67;1.75;;;;;;;25.63;19.00;101810.75;1884702;76;21094;-47
2023/01/19 09:46:24;;;;;;;5.65;1.62;;;;;;;25.25;18.57;101801.43;1884600;76;21015;-47
2023/01/19 09:49:03;;;;;;;4.05;2.00;;;;;;;24.98;18.82;101798.68;1884465;76;21140;-49
2023/01/19 09:51:34;;;;;;;4.20;2.10;;;;;;;24.47;18.92;101806.00;1880652;76;21168;-47
2023/01/19 09:54:15;;;;;;;2.85;1.80;;;;;;;24.40;19.12;101807.47;1883596;76;21046;-46
2023/01/19 09:56:46;;;;;;;4.92;2.10;;;;;;;24.65;19.25;101801.83;1884556;76;21473;-47
2023/01/19 09:59:24;;;;;;;4.25;1.92;;;;;;;25.02;19.41;101797.43;1884654;76;21481;-46
2023/01/19 10:02:07;;;;;;;4.10;1.50;;;;;;;25.19;19.35;101800.55;1881283;76;21148;-48
2023/01/19 10:04:41;;;;;;;4.15;1.70;;;;;;;25.05;18.86;101793.14;1884617;76;21568;-49
2023/01/19 10:07:14;;;;;;;7.10;2.12;;;;;;;24.85;18.67;101785.87;1883840;76;21046;-51
2023/01/19 10:09:51;;;;;;;3.85;1.72;;;;;;;25.05;18.72;101785.06;1882229;76;21042;-53
2023/01/19 10:12:28;;;;;;;3.10;1.67;;;;;;;24.96;18.76;101784.48;1881424;76;21185;-53
2023/01/19 10:15:10;;;;;;;4.62;2.33;;;;;;;24.66;18.90;101794.14;1880987;76;21123;-53
2023/01/19 10:17:48;;;;;;;5.28;2.25;;;;;;;24.38;19.24;101791.94;1888194;76;21038;-53
2023/01/19 10:20:20;;;;;;;6.62;2.22;;;;;;;24.13;19.40;101789.89;1887770;76;21046;-53
2023/01/19 10:22:50;;;;;;;4.85;2.12;;;;;;;24.25;19.44;101788.92;1884238;75;21549;-50
2023/01/19 10:25:27;;;;;;;6.42;2.08;;;;;;;24.44;18.87;101794.16;1904071;75;21171;-49
2023/01/19 10:27:51;;;;;;;;;;;;;;;24.53;18.86;101775.94;1889831;76;21030;-49
2023/01/19 10:30:25;;;;;;;4.53;1.82;;;;;;;24.88;18.56;101774.86;1861370;76;20123;-49
2023/01/19 10:32:54;;;;;;;3.35;1.90;;;;;;;24.71;18.89;101780.78;1856223;77;21457;-49
2023/01/19 10:35:24;;;;;;;3.02;1.70;;;;;;;24.35;19.22;101775.56;1856347;77;21065;-49
2023/01/19 10:37:58;;;;;;;7.65;2.20;;;;;;;24.33;19.36;101779.34;1856350;77;21057;-48
2023/01/19 10:40:59;;;;;;;4.20;1.90;;;;;;;24.14;19.25;101773.25;1856244;77;21054;-49
2023/01/19 10:43:36;;;;;;;4.40;1.50;;;;;;;23.86;19.48;101773.61;1856159;77;21066;-51
2023/01/19 10:46:26;;;;;;;7.42;1.60;;;;;;;23.42;19.92;101771.69;1856230;77;21528;-50
2023/01/19 10:49:00;;;;;;;4.85;2.20;;;;;;;23.25;20.26;101767.62;1856368;77;21058;-51
2023/01/19 10:51:29;;;;;;;3.25;1.75;;;;;;;23.07;20.67;101764.50;1876693;75;21073;-50
2023/01/19 10:54:05;;;;;;;4.12;1.47;;;;;;;22.77;20.88;101767.14;1867273;75;21072;-49
2023/01/19 10:56:36;;;;;;;7.45;1.98;;;;;;;22.54;21.28;101771.55;1856265;77;21498;-47
2023/01/19 10:59:06;;;;;;;4.53;1.90;;;;;;;22.28;21.68;101759.55;1856382;77;21129;-48
2023/01/19 11:01:37;;;;;;;5.05;1.67;;;;;;;22.05;21.76;101754.95;1858450;76;21052;-58
2023/01/19 11:04:27;;;;;;;4.60;1.90;;;;;;;21.92;22.03;101753.13;1856271;77;21118;-58
2023/01/19 11:07:16;;;;;;;6.22;2.05;;;;;;;22.02;22.00;101753.81;1826705;78;21073;-52
2023/01/19 11:09:44;;;;;;;2.87;1.70;;;;;;;22.56;21.51;101753.50;1832770;77;21151;-52
2023/01/19 11:12:22;;;;;;;4.15;1.80;;;;;;;23.07;21.32;101751.06;1858333;76;21051;-56
2023/01/19 11:14:52;;;;;;;8.58;3.08;;;;;;;22.98;21.35;101749.92;1843084;76;21171;-56
2023/01/19 11:17:24;;;;;;;9.25;2.77;;;;;;;22.91;21.56;101751.36;1832346;78;21061;-50
2023/01/19 11:19:56;;;;;;;6.08;2.67;;;;;;;23.24;21.60;101743.05;1832506;78;21029;-49
2023/01/19 11:22:31;;;;;;;6.58;3.05;;;;;;;23.66;20.98;101744.72;1832652;78;21065;-50
2023/01/19 11:25:03;;;;;;;6.45;2.70;;;;;;;24.12;20.76;101746.97;1832205;78;21617;-47
2023/01/19 11:27:35;;;;;;;7.67;2.55;;;;;;;24.59;20.24;101745.81;1832380;78;21123;-48
2023/01/19 11:30:09;;;;;;;5.17;2.05;;;;;;;25.19;20.04;101748.84;1830090;78;21092;-48
2023/01/19 11:32:38;;;;;;;4.42;2.00;;;;;;;25.88;19.59;101751.98;1830715;78;21519;-53
2023/01/19 11:35:32;;;;;;;4.97;2.60;;;;;;;26.25;19.18;101743.34;1832228;78;21053;-52
2023/01/19 11:38:19;;;;;;;4.95;2.00;;;;;;;25.79;19.44;101746.40;1832386;78;21550;-49
2023/01/19 11:40:54;;;;;;;4.37;2.33;;;;;;;25.98;19.37;101756.44;1832583;78;21483;-50
2023/01/19 11:43:25;;;;;;;4.60;1.85;;;;;;;26.03;19.04;101757.40;1831649;78;21130;-49
2023/01/19 11:45:57;;;;;;;7.83;1.98;;;;;;;25.90;18.78;101755.41;1832297;78;21053;-51
2023/01/19 11:48:41;;;;;;;4.92;1.85;;;;;;;25.58;19.01;101755.01;1832501;78;21100;-47
2023/01/19 11:51:16;;;;;;;5.60;2.02;;;;;;;25.39;19.28;101757.10;1832051;78;21143;-47
2023/01/19 11:53:47;;;;;;;4.67;1.67;;;;;;;24.85;19.51;101757.09;1832369;78;21056;-47
2023/01/19 11:56:17;;;;;;;5.92;1.80;;;;;;;24.38;19.94;101755.61;1832362;78;21029;-51
2023/01/19 11:58:46;;;;;;;2.45;1.37;;;;;;;24.06;20.12;101755.05;1832425;78;21535;-48